sensor_id;sensor_type;location;lat;lon;timestamp;P1;durP1;ratioP1;P2;durP2;ratioP2
34673;SDS011;20879;55.668;37.858;2022-08-03T00:00:40;14.40;;;5.78;;
34673;SDS011;20879;55.668;37.858;2022-08-03T00:03:11;12.32;;;5.60;;
34673;SDS011;20879;55.668;37.858;2022-08-03T00:05:41;11.20;;;6.13;;
34673;SDS011;20879;55.668;37.858;2022-08-03T00:08:30;12.60;;;5.82;;
34673;SDS011;20879;55.668;37.858;2022-08-03T00:11:06;8.13;;;5.82;;
34673;SDS011;20879;55.668;37.858;2022-08-03T00:13:35;11.10;;;5.72;;
34673;SDS011;20879;55.668;37.858;2022-08-03T00:16:04;7.63;;;5.53;;
34673;SDS011;20879;55.668;37.858;2022-08-03T00:18:35;9.70;;;5.72;;
34673;SDS011;20879;55.668;37.858;2022-08-03T00:21:05;13.27;;;5.97;;
34673;SDS011;20879;55.668;37.858;2022-08-03T00:23:35;9.90;;;5.50;;
34673;SDS011;20879;55.668;37.858;2022-08-03T00:26:17;9.25;;;6.15;;
34673;SDS011;20879;55.668;37.858;2022-08-03T00:28:47;10.82;;;6.13;;
34673;SDS011;20879;55.668;37.858;2022-08-03T00:31:16;9.00;;;5.78;;
34673;SDS011;20879;55.668;37.858;2022-08-03T00:34:08;8.07;;;5.95;;
34673;SDS011;20879;55.668;37.858;2022-08-03T00:36:38;8.40;;;5.40;;
34673;SDS011;20879;55.668;37.858;2022-08-03T00:39:07;11.52;;;5.60;;
34673;SDS011;20879;55.668;37.858;2022-08-03T00:41:37;8.85;;;5.53;;
34673;SDS011;20879;55.668;37.858;2022-08-03T00:44:06;8.52;;;5.88;;
34673;SDS011;20879;55.668;37.858;2022-08-03T00:46:38;7.47;;;5.93;;
34673;SDS011;20879;55.668;37.858;2022-08-03T00:49:09;11.80;;;6.43;;
34673;SDS011;20879;55.668;37.858;2022-08-03T00:51:40;10.55;;;5.95;;
34673;SDS011;20879;55.668;37.858;2022-08-03T00:54:10;8.55;;;6.05;;
34673;SDS011;20879;55.668;37.858;2022-08-03T00:56:40;14.35;;;6.85;;
34673;SDS011;20879;55.668;37.858;2022-08-03T00:59:26;8.40;;;6.28;;
34673;SDS011;20879;55.668;37.858;2022-08-03T01:01:55;14.63;;;6.43;;
34673;SDS011;20879;55.668;37.858;2022-08-03T01:04:26;10.23;;;6.55;;
34673;SDS011;20879;55.668;37.858;2022-08-03T01:06:57;13.55;;;6.60;;
34673;SDS011;20879;55.668;37.858;2022-08-03T01:09:38;10.38;;;6.53;;
34673;SDS011;20879;55.668;37.858;2022-08-03T01:12:16;10.85;;;6.50;;
34673;SDS011;20879;55.668;37.858;2022-08-03T01:14:50;9.02;;;6.40;;
34673;SDS011;20879;55.668;37.858;2022-08-03T01:17:31;11.82;;;6.45;;
34673;SDS011;20879;55.668;37.858;2022-08-03T01:20:07;10.38;;;6.60;;
34673;SDS011;20879;55.668;37.858;2022-08-03T01:22:47;11.93;;;6.78;;
34673;SDS011;20879;55.668;37.858;2022-08-03T01:25:32;13.75;;;7.13;;
34673;SDS011;20879;55.668;37.858;2022-08-03T01:28:17;10.57;;;6.57;;
34673;SDS011;20879;55.668;37.858;2022-08-03T01:31:00;10.43;;;6.70;;
34673;SDS011;20879;55.668;37.858;2022-08-03T01:33:35;12.75;;;7.90;;
34673;SDS011;20879;55.668;37.858;2022-08-03T01:36:08;9.95;;;6.80;;
34673;SDS011;20879;55.668;37.858;2022-08-03T01:38:42;13.85;;;6.97;;
34673;SDS011;20879;55.668;37.858;2022-08-03T01:41:16;11.00;;;7.00;;
34673;SDS011;20879;55.668;37.858;2022-08-03T01:43:48;10.55;;;6.85;;
34673;SDS011;20879;55.668;37.858;2022-08-03T01:49:14;9.93;;;6.63;;
34673;SDS011;20879;55.668;37.858;2022-08-03T01:51:46;11.02;;;7.32;;
34673;SDS011;20879;55.668;37.858;2022-08-03T01:54:31;10.00;;;7.47;;
34673;SDS011;20879;55.668;37.858;2022-08-03T01:57:04;11.32;;;6.90;;
34673;SDS011;20879;55.668;37.858;2022-08-03T01:59:35;11.07;;;6.63;;
34673;SDS011;20879;55.668;37.858;2022-08-03T02:02:09;13.20;;;7.07;;
34673;SDS011;20879;55.668;37.858;2022-08-03T02:05:00;14.38;;;7.90;;
34673;SDS011;20879;55.668;37.858;2022-08-03T02:07:37;12.05;;;7.55;;
34673;SDS011;20879;55.668;37.858;2022-08-03T02:10:08;12.95;;;7.35;;
34673;SDS011;20879;55.668;37.858;2022-08-03T02:12:42;9.40;;;7.18;;
34673;SDS011;20879;55.668;37.858;2022-08-03T02:15:16;16.02;;;8.02;;
34673;SDS011;20879;55.668;37.858;2022-08-03T02:17:49;11.52;;;7.47;;
34673;SDS011;20879;55.668;37.858;2022-08-03T02:20:21;11.63;;;7.70;;
34673;SDS011;20879;55.668;37.858;2022-08-03T02:22:52;16.43;;;8.53;;
34673;SDS011;20879;55.668;37.858;2022-08-03T02:25:22;16.00;;;8.05;;
34673;SDS011;20879;55.668;37.858;2022-08-03T02:27:54;9.30;;;7.90;;
34673;SDS011;20879;55.668;37.858;2022-08-03T02:30:30;10.23;;;7.50;;
34673;SDS011;20879;55.668;37.858;2022-08-03T02:33:09;11.95;;;7.70;;
34673;SDS011;20879;55.668;37.858;2022-08-03T02:35:39;10.15;;;7.18;;
34673;SDS011;20879;55.668;37.858;2022-08-03T02:40:41;11.48;;;8.27;;
34673;SDS011;20879;55.668;37.858;2022-08-03T02:43:15;11.02;;;7.20;;
34673;SDS011;20879;55.668;37.858;2022-08-03T02:46:16;12.48;;;8.05;;
34673;SDS011;20879;55.668;37.858;2022-08-03T02:48:59;11.02;;;7.70;;
34673;SDS011;20879;55.668;37.858;2022-08-03T02:51:52;11.02;;;6.95;;
34673;SDS011;20879;55.668;37.858;2022-08-03T02:57:01;9.85;;;7.45;;
34673;SDS011;20879;55.668;37.858;2022-08-03T02:59:34;11.80;;;7.32;;
34673;SDS011;20879;55.668;37.858;2022-08-03T03:02:06;10.15;;;7.53;;
34673;SDS011;20879;55.668;37.858;2022-08-03T03:04:39;9.68;;;7.30;;
34673;SDS011;20879;55.668;37.858;2022-08-03T03:07:30;10.18;;;7.03;;
34673;SDS011;20879;55.668;37.858;2022-08-03T03:10:18;12.57;;;7.68;;
34673;SDS011;20879;55.668;37.858;2022-08-03T03:12:49;11.60;;;7.57;;
34673;SDS011;20879;55.668;37.858;2022-08-03T03:17:49;15.85;;;8.90;;
34673;SDS011;20879;55.668;37.858;2022-08-03T03:20:23;9.82;;;6.63;;
34673;SDS011;20879;55.668;37.858;2022-08-03T03:22:57;13.07;;;7.85;;
34673;SDS011;20879;55.668;37.858;2022-08-03T03:25:27;10.25;;;7.53;;
34673;SDS011;20879;55.668;37.858;2022-08-03T03:27:58;12.52;;;7.75;;
34673;SDS011;20879;55.668;37.858;2022-08-03T03:30:28;10.07;;;7.25;;
34673;SDS011;20879;55.668;37.858;2022-08-03T03:32:58;11.10;;;7.22;;
34673;SDS011;20879;55.668;37.858;2022-08-03T03:35:30;10.38;;;7.25;;
34673;SDS011;20879;55.668;37.858;2022-08-03T03:38:05;11.73;;;7.72;;
34673;SDS011;20879;55.668;37.858;2022-08-03T03:40:34;11.45;;;7.50;;
34673;SDS011;20879;55.668;37.858;2022-08-03T03:43:06;12.02;;;8.13;;
34673;SDS011;20879;55.668;37.858;2022-08-03T03:45:36;10.88;;;8.15;;
34673;SDS011;20879;55.668;37.858;2022-08-03T03:50:38;9.98;;;7.57;;
34673;SDS011;20879;55.668;37.858;2022-08-03T03:53:08;12.73;;;8.30;;
34673;SDS011;20879;55.668;37.858;2022-08-03T03:55:41;10.80;;;8.13;;
34673;SDS011;20879;55.668;37.858;2022-08-03T03:58:29;13.75;;;8.35;;
34673;SDS011;20879;55.668;37.858;2022-08-03T04:01:00;9.88;;;6.88;;
34673;SDS011;20879;55.668;37.858;2022-08-03T04:03:29;8.48;;;6.80;;
34673;SDS011;20879;55.668;37.858;2022-08-03T04:06:00;7.70;;;6.85;;
34673;SDS011;20879;55.668;37.858;2022-08-03T04:08:42;8.13;;;6.47;;
34673;SDS011;20879;55.668;37.858;2022-08-03T04:11:26;10.90;;;6.57;;
34673;SDS011;20879;55.668;37.858;2022-08-03T04:14:00;8.88;;;6.78;;
34673;SDS011;20879;55.668;37.858;2022-08-03T04:16:35;11.45;;;7.18;;
34673;SDS011;20879;55.668;37.858;2022-08-03T04:19:10;11.82;;;6.85;;
34673;SDS011;20879;55.668;37.858;2022-08-03T04:21:52;9.93;;;6.75;;
34673;SDS011;20879;55.668;37.858;2022-08-03T04:24:26;10.30;;;7.80;;
34673;SDS011;20879;55.668;37.858;2022-08-03T04:27:02;12.10;;;7.22;;
34673;SDS011;20879;55.668;37.858;2022-08-03T04:29:36;14.43;;;7.72;;
34673;SDS011;20879;55.668;37.858;2022-08-03T04:32:14;9.48;;;6.93;;
34673;SDS011;20879;55.668;37.858;2022-08-03T04:34:45;12.55;;;7.15;;
34673;SDS011;20879;55.668;37.858;2022-08-03T04:37:18;11.30;;;7.05;;
34673;SDS011;20879;55.668;37.858;2022-08-03T04:39:53;12.13;;;7.57;;
34673;SDS011;20879;55.668;37.858;2022-08-03T04:42:26;10.98;;;7.20;;
34673;SDS011;20879;55.668;37.858;2022-08-03T04:45:09;10.70;;;7.50;;
34673;SDS011;20879;55.668;37.858;2022-08-03T04:47:41;10.38;;;7.47;;
34673;SDS011;20879;55.668;37.858;2022-08-03T04:50:10;14.93;;;7.43;;
34673;SDS011;20879;55.668;37.858;2022-08-03T04:53:06;14.82;;;7.25;;
34673;SDS011;20879;55.668;37.858;2022-08-03T04:55:35;11.93;;;7.65;;
34673;SDS011;20879;55.668;37.858;2022-08-03T04:58:04;13.25;;;7.97;;
34673;SDS011;20879;55.668;37.858;2022-08-03T05:00:34;10.55;;;7.15;;
34673;SDS011;20879;55.668;37.858;2022-08-03T05:03:03;9.18;;;6.80;;
34673;SDS011;20879;55.668;37.858;2022-08-03T05:05:50;14.25;;;7.55;;
34673;SDS011;20879;55.668;37.858;2022-08-03T05:08:29;11.68;;;7.82;;
34673;SDS011;20879;55.668;37.858;2022-08-03T05:10:59;13.40;;;7.15;;
34673;SDS011;20879;55.668;37.858;2022-08-03T05:13:29;17.83;;;8.05;;
34673;SDS011;20879;55.668;37.858;2022-08-03T05:15:58;11.98;;;7.20;;
34673;SDS011;20879;55.668;37.858;2022-08-03T05:18:27;17.75;;;7.20;;
34673;SDS011;20879;55.668;37.858;2022-08-03T05:20:57;16.52;;;7.95;;
34673;SDS011;20879;55.668;37.858;2022-08-03T05:23:26;18.17;;;8.25;;
34673;SDS011;20879;55.668;37.858;2022-08-03T05:25:57;17.15;;;7.45;;
34673;SDS011;20879;55.668;37.858;2022-08-03T05:30:56;15.10;;;7.07;;
34673;SDS011;20879;55.668;37.858;2022-08-03T05:33:25;15.25;;;7.15;;
34673;SDS011;20879;55.668;37.858;2022-08-03T05:35:54;14.23;;;8.25;;
34673;SDS011;20879;55.668;37.858;2022-08-03T05:38:30;14.27;;;8.38;;
34673;SDS011;20879;55.668;37.858;2022-08-03T05:41:03;13.40;;;8.52;;
34673;SDS011;20879;55.668;37.858;2022-08-03T05:43:48;13.52;;;7.65;;
34673;SDS011;20879;55.668;37.858;2022-08-03T05:46:19;16.98;;;7.85;;
34673;SDS011;20879;55.668;37.858;2022-08-03T05:48:49;13.00;;;6.80;;
34673;SDS011;20879;55.668;37.858;2022-08-03T05:51:18;11.52;;;7.13;;
34673;SDS011;20879;55.668;37.858;2022-08-03T05:53:49;12.35;;;6.85;;
34673;SDS011;20879;55.668;37.858;2022-08-03T05:56:22;13.63;;;6.93;;
34673;SDS011;20879;55.668;37.858;2022-08-03T05:58:52;12.27;;;7.03;;
34673;SDS011;20879;55.668;37.858;2022-08-03T06:01:22;13.77;;;7.30;;
34673;SDS011;20879;55.668;37.858;2022-08-03T06:03:51;19.27;;;6.90;;
34673;SDS011;20879;55.668;37.858;2022-08-03T06:06:21;14.80;;;7.10;;
34673;SDS011;20879;55.668;37.858;2022-08-03T06:08:54;14.15;;;6.78;;
34673;SDS011;20879;55.668;37.858;2022-08-03T06:11:25;16.45;;;7.28;;
34673;SDS011;20879;55.668;37.858;2022-08-03T06:13:54;16.10;;;7.07;;
34673;SDS011;20879;55.668;37.858;2022-08-03T06:16:26;17.77;;;7.80;;
34673;SDS011;20879;55.668;37.858;2022-08-03T06:18:55;16.23;;;7.90;;
34673;SDS011;20879;55.668;37.858;2022-08-03T06:21:24;14.10;;;7.00;;
34673;SDS011;20879;55.668;37.858;2022-08-03T06:23:56;16.77;;;7.45;;
34673;SDS011;20879;55.668;37.858;2022-08-03T06:26:31;18.17;;;7.55;;
34673;SDS011;20879;55.668;37.858;2022-08-03T06:29:01;15.35;;;7.15;;
34673;SDS011;20879;55.668;37.858;2022-08-03T06:31:34;13.48;;;7.00;;
34673;SDS011;20879;55.668;37.858;2022-08-03T06:34:03;12.80;;;7.50;;
34673;SDS011;20879;55.668;37.858;2022-08-03T06:36:53;16.40;;;7.32;;
34673;SDS011;20879;55.668;37.858;2022-08-03T06:39:28;16.27;;;6.65;;
34673;SDS011;20879;55.668;37.858;2022-08-03T06:41:59;10.18;;;6.50;;
34673;SDS011;20879;55.668;37.858;2022-08-03T06:44:29;12.60;;;6.63;;
34673;SDS011;20879;55.668;37.858;2022-08-03T06:46:58;11.38;;;7.10;;
34673;SDS011;20879;55.668;37.858;2022-08-03T06:49:27;12.82;;;6.97;;
34673;SDS011;20879;55.668;37.858;2022-08-03T06:51:57;10.77;;;6.95;;
34673;SDS011;20879;55.668;37.858;2022-08-03T06:54:33;13.20;;;7.47;;
34673;SDS011;20879;55.668;37.858;2022-08-03T06:57:05;11.00;;;6.00;;
34673;SDS011;20879;55.668;37.858;2022-08-03T06:59:36;14.95;;;6.43;;
34673;SDS011;20879;55.668;37.858;2022-08-03T07:02:26;12.95;;;6.10;;
34673;SDS011;20879;55.668;37.858;2022-08-03T07:04:57;10.25;;;5.28;;
34673;SDS011;20879;55.668;37.858;2022-08-03T07:07:26;9.15;;;5.40;;
34673;SDS011;20879;55.668;37.858;2022-08-03T07:09:56;12.80;;;6.15;;
34673;SDS011;20879;55.668;37.858;2022-08-03T07:12:27;11.63;;;6.28;;
34673;SDS011;20879;55.668;37.858;2022-08-03T07:14:58;10.88;;;5.93;;
34673;SDS011;20879;55.668;37.858;2022-08-03T07:17:32;11.25;;;5.25;;
34673;SDS011;20879;55.668;37.858;2022-08-03T07:20:03;9.70;;;5.15;;
34673;SDS011;20879;55.668;37.858;2022-08-03T07:22:34;9.38;;;4.43;;
34673;SDS011;20879;55.668;37.858;2022-08-03T07:25:04;9.95;;;4.40;;
34673;SDS011;20879;55.668;37.858;2022-08-03T07:27:37;14.30;;;5.50;;
34673;SDS011;20879;55.668;37.858;2022-08-03T07:30:06;12.38;;;5.63;;
34673;SDS011;20879;55.668;37.858;2022-08-03T07:32:36;10.27;;;5.10;;
34673;SDS011;20879;55.668;37.858;2022-08-03T07:35:16;9.90;;;4.68;;
34673;SDS011;20879;55.668;37.858;2022-08-03T07:37:51;5.47;;;3.80;;
34673;SDS011;20879;55.668;37.858;2022-08-03T07:40:21;8.18;;;4.03;;
34673;SDS011;20879;55.668;37.858;2022-08-03T07:42:59;7.00;;;3.75;;
34673;SDS011;20879;55.668;37.858;2022-08-03T07:45:29;5.47;;;3.60;;
34673;SDS011;20879;55.668;37.858;2022-08-03T07:47:59;5.80;;;3.70;;
34673;SDS011;20879;55.668;37.858;2022-08-03T07:50:29;6.60;;;3.65;;
34673;SDS011;20879;55.668;37.858;2022-08-03T07:52:58;4.00;;;3.60;;
34673;SDS011;20879;55.668;37.858;2022-08-03T07:55:27;7.85;;;3.38;;
34673;SDS011;20879;55.668;37.858;2022-08-03T07:58:02;5.70;;;3.70;;
34673;SDS011;20879;55.668;37.858;2022-08-03T08:00:34;3.60;;;3.30;;
34673;SDS011;20879;55.668;37.858;2022-08-03T08:03:04;6.78;;;3.20;;
34673;SDS011;20879;55.668;37.858;2022-08-03T08:05:33;7.25;;;3.65;;
34673;SDS011;20879;55.668;37.858;2022-08-03T08:08:02;5.60;;;3.30;;
34673;SDS011;20879;55.668;37.858;2022-08-03T08:10:32;4.43;;;3.55;;
34673;SDS011;20879;55.668;37.858;2022-08-03T08:13:04;4.20;;;3.70;;
34673;SDS011;20879;55.668;37.858;2022-08-03T08:18:08;5.68;;;3.65;;
34673;SDS011;20879;55.668;37.858;2022-08-03T08:20:39;6.97;;;3.80;;
34673;SDS011;20879;55.668;37.858;2022-08-03T08:23:11;6.50;;;3.80;;
34673;SDS011;20879;55.668;37.858;2022-08-03T08:26:00;6.30;;;3.50;;
34673;SDS011;20879;55.668;37.858;2022-08-03T08:28:31;4.93;;;3.67;;
34673;SDS011;20879;55.668;37.858;2022-08-03T08:33:29;8.70;;;4.00;;
34673;SDS011;20879;55.668;37.858;2022-08-03T08:36:20;5.40;;;3.83;;
34673;SDS011;20879;55.668;37.858;2022-08-03T08:38:49;8.40;;;3.47;;
34673;SDS011;20879;55.668;37.858;2022-08-03T08:41:18;9.15;;;3.63;;
34673;SDS011;20879;55.668;37.858;2022-08-03T08:43:49;6.90;;;3.78;;
34673;SDS011;20879;55.668;37.858;2022-08-03T08:46:25;4.45;;;3.47;;
34673;SDS011;20879;55.668;37.858;2022-08-03T08:48:56;8.20;;;3.80;;
34673;SDS011;20879;55.668;37.858;2022-08-03T08:51:31;5.50;;;3.90;;
34673;SDS011;20879;55.668;37.858;2022-08-03T08:54:22;6.35;;;3.95;;
34673;SDS011;20879;55.668;37.858;2022-08-03T08:56:53;8.23;;;4.05;;
34673;SDS011;20879;55.668;37.858;2022-08-03T09:02:14;7.53;;;4.10;;
34673;SDS011;20879;55.668;37.858;2022-08-03T09:04:44;10.13;;;4.22;;
34673;SDS011;20879;55.668;37.858;2022-08-03T09:07:14;4.68;;;3.92;;
34673;SDS011;20879;55.668;37.858;2022-08-03T09:09:47;10.45;;;4.20;;
34673;SDS011;20879;55.668;37.858;2022-08-03T09:12:37;7.45;;;4.40;;
34673;SDS011;20879;55.668;37.858;2022-08-03T09:15:23;6.85;;;3.72;;
34673;SDS011;20879;55.668;37.858;2022-08-03T09:17:57;5.95;;;3.63;;
34673;SDS011;20879;55.668;37.858;2022-08-03T09:20:28;7.05;;;3.63;;
34673;SDS011;20879;55.668;37.858;2022-08-03T09:22:59;6.45;;;3.88;;
34673;SDS011;20879;55.668;37.858;2022-08-03T09:25:50;7.18;;;3.88;;
34673;SDS011;20879;55.668;37.858;2022-08-03T09:28:32;5.07;;;3.50;;
34673;SDS011;20879;55.668;37.858;2022-08-03T09:31:32;6.28;;;3.45;;
34673;SDS011;20879;55.668;37.858;2022-08-03T09:34:03;9.50;;;3.70;;
34673;SDS011;20879;55.668;37.858;2022-08-03T09:36:34;8.30;;;3.60;;
34673;SDS011;20879;55.668;37.858;2022-08-03T09:39:05;4.65;;;3.83;;
34673;SDS011;20879;55.668;37.858;2022-08-03T09:41:37;9.40;;;3.83;;
34673;SDS011;20879;55.668;37.858;2022-08-03T09:44:07;8.32;;;4.63;;
34673;SDS011;20879;55.668;37.858;2022-08-03T09:46:53;4.55;;;3.67;;
34673;SDS011;20879;55.668;37.858;2022-08-03T09:49:23;6.68;;;3.58;;
34673;SDS011;20879;55.668;37.858;2022-08-03T09:51:53;7.50;;;4.32;;
34673;SDS011;20879;55.668;37.858;2022-08-03T09:54:43;8.48;;;3.78;;
34673;SDS011;20879;55.668;37.858;2022-08-03T09:57:19;6.10;;;3.78;;
34673;SDS011;20879;55.668;37.858;2022-08-03T09:59:50;5.22;;;4.00;;
34673;SDS011;20879;55.668;37.858;2022-08-03T10:02:40;5.88;;;3.95;;
34673;SDS011;20879;55.668;37.858;2022-08-03T10:05:11;4.65;;;3.42;;
34673;SDS011;20879;55.668;37.858;2022-08-03T10:07:46;5.03;;;3.75;;
34673;SDS011;20879;55.668;37.858;2022-08-03T10:10:16;5.78;;;3.90;;
34673;SDS011;20879;55.668;37.858;2022-08-03T10:15:27;8.63;;;3.83;;
34673;SDS011;20879;55.668;37.858;2022-08-03T10:18:19;5.93;;;4.22;;
34673;SDS011;20879;55.668;37.858;2022-08-03T10:23:19;9.57;;;3.92;;
34673;SDS011;20879;55.668;37.858;2022-08-03T10:25:51;9.60;;;3.83;;
34673;SDS011;20879;55.668;37.858;2022-08-03T10:28:25;8.70;;;3.75;;
34673;SDS011;20879;55.668;37.858;2022-08-03T10:31:04;6.93;;;3.72;;
34673;SDS011;20879;55.668;37.858;2022-08-03T10:33:38;7.25;;;3.92;;
34673;SDS011;20879;55.668;37.858;2022-08-03T10:36:18;8.93;;;3.83;;
34673;SDS011;20879;55.668;37.858;2022-08-03T10:38:53;11.88;;;4.43;;
34673;SDS011;20879;55.668;37.858;2022-08-03T10:41:25;7.25;;;3.90;;
34673;SDS011;20879;55.668;37.858;2022-08-03T10:44:02;6.57;;;3.88;;
34673;SDS011;20879;55.668;37.858;2022-08-03T10:46:33;6.13;;;3.80;;
34673;SDS011;20879;55.668;37.858;2022-08-03T10:49:13;6.43;;;3.60;;
34673;SDS011;20879;55.668;37.858;2022-08-03T10:52:01;5.60;;;3.55;;
34673;SDS011;20879;55.668;37.858;2022-08-03T10:54:53;6.43;;;3.90;;
34673;SDS011;20879;55.668;37.858;2022-08-03T10:57:44;11.50;;;4.00;;
34673;SDS011;20879;55.668;37.858;2022-08-03T11:00:16;6.07;;;4.40;;
34673;SDS011;20879;55.668;37.858;2022-08-03T11:05:34;6.90;;;4.05;;
34673;SDS011;20879;55.668;37.858;2022-08-03T11:08:22;7.32;;;4.18;;
34673;SDS011;20879;55.668;37.858;2022-08-03T11:10:54;6.28;;;4.15;;
34673;SDS011;20879;55.668;37.858;2022-08-03T11:13:26;6.05;;;4.10;;
34673;SDS011;20879;55.668;37.858;2022-08-03T11:16:00;8.38;;;3.95;;
34673;SDS011;20879;55.668;37.858;2022-08-03T11:18:34;7.50;;;4.57;;
34673;SDS011;20879;55.668;37.858;2022-08-03T11:21:06;9.80;;;4.03;;
34673;SDS011;20879;55.668;37.858;2022-08-03T11:23:39;6.65;;;4.03;;
34673;SDS011;20879;55.668;37.858;2022-08-03T11:26:31;7.13;;;4.40;;
34673;SDS011;20879;55.668;37.858;2022-08-03T11:31:56;8.13;;;3.90;;
34673;SDS011;20879;55.668;37.858;2022-08-03T11:34:25;7.15;;;4.38;;
34673;SDS011;20879;55.668;37.858;2022-08-03T11:39:59;7.45;;;3.90;;
34673;SDS011;20879;55.668;37.858;2022-08-03T11:42:42;9.75;;;4.32;;
34673;SDS011;20879;55.668;37.858;2022-08-03T11:45:13;6.90;;;4.13;;
34673;SDS011;20879;55.668;37.858;2022-08-03T11:47:45;4.70;;;3.92;;
34673;SDS011;20879;55.668;37.858;2022-08-03T11:50:17;5.55;;;4.28;;
34673;SDS011;20879;55.668;37.858;2022-08-03T11:52:49;7.15;;;4.78;;
34673;SDS011;20879;55.668;37.858;2022-08-03T11:55:19;7.53;;;4.40;;
34673;SDS011;20879;55.668;37.858;2022-08-03T11:57:57;13.30;;;4.65;;
34673;SDS011;20879;55.668;37.858;2022-08-03T12:00:47;12.75;;;4.32;;
34673;SDS011;20879;55.668;37.858;2022-08-03T12:03:17;9.10;;;4.53;;
34673;SDS011;20879;55.668;37.858;2022-08-03T12:05:48;5.93;;;4.35;;
34673;SDS011;20879;55.668;37.858;2022-08-03T12:08:30;5.47;;;4.07;;
34673;SDS011;20879;55.668;37.858;2022-08-03T12:11:03;6.53;;;3.93;;
34673;SDS011;20879;55.668;37.858;2022-08-03T12:13:35;6.97;;;4.10;;
34673;SDS011;20879;55.668;37.858;2022-08-03T12:16:26;9.85;;;4.38;;
34673;SDS011;20879;55.668;37.858;2022-08-03T12:18:56;7.30;;;4.28;;
34673;SDS011;20879;55.668;37.858;2022-08-03T12:21:27;11.48;;;4.22;;
34673;SDS011;20879;55.668;37.858;2022-08-03T12:24:00;6.60;;;4.33;;
34673;SDS011;20879;55.668;37.858;2022-08-03T12:26:41;8.95;;;4.50;;
34673;SDS011;20879;55.668;37.858;2022-08-03T12:29:25;8.45;;;4.28;;
34673;SDS011;20879;55.668;37.858;2022-08-03T12:31:55;5.25;;;4.15;;
34673;SDS011;20879;55.668;37.858;2022-08-03T12:34:34;5.68;;;4.18;;
34673;SDS011;20879;55.668;37.858;2022-08-03T12:37:13;6.30;;;4.32;;
34673;SDS011;20879;55.668;37.858;2022-08-03T12:39:51;13.35;;;4.30;;
34673;SDS011;20879;55.668;37.858;2022-08-03T12:42:31;5.63;;;3.92;;
34673;SDS011;20879;55.668;37.858;2022-08-03T12:47:51;6.93;;;4.25;;
34673;SDS011;20879;55.668;37.858;2022-08-03T12:57:41;7.65;;;4.15;;
34673;SDS011;20879;55.668;37.858;2022-08-03T13:00:11;8.80;;;4.50;;
34673;SDS011;20879;55.668;37.858;2022-08-03T13:02:58;8.63;;;4.82;;
34673;SDS011;20879;55.668;37.858;2022-08-03T13:05:50;5.68;;;4.45;;
34673;SDS011;20879;55.668;37.858;2022-08-03T13:08:19;8.80;;;4.65;;
34673;SDS011;20879;55.668;37.858;2022-08-03T13:16:08;10.23;;;4.05;;
34673;SDS011;20879;55.668;37.858;2022-08-03T13:18:44;11.65;;;4.53;;
34673;SDS011;20879;55.668;37.858;2022-08-03T13:21:14;7.72;;;4.53;;
34673;SDS011;20879;55.668;37.858;2022-08-03T13:23:44;14.95;;;5.25;;
34673;SDS011;20879;55.668;37.858;2022-08-03T13:26:13;6.27;;;4.30;;
34673;SDS011;20879;55.668;37.858;2022-08-03T13:28:45;12.80;;;4.40;;
34673;SDS011;20879;55.668;37.858;2022-08-03T13:33:42;7.30;;;4.47;;
34673;SDS011;20879;55.668;37.858;2022-08-03T13:36:12;7.18;;;4.28;;
34673;SDS011;20879;55.668;37.858;2022-08-03T13:38:46;10.80;;;4.30;;
34673;SDS011;20879;55.668;37.858;2022-08-03T13:41:16;9.40;;;4.32;;
34673;SDS011;20879;55.668;37.858;2022-08-03T13:43:58;10.20;;;4.28;;
34673;SDS011;20879;55.668;37.858;2022-08-03T13:46:48;10.10;;;4.35;;
34673;SDS011;20879;55.668;37.858;2022-08-03T13:49:17;10.23;;;5.05;;
34673;SDS011;20879;55.668;37.858;2022-08-03T13:51:47;7.53;;;4.53;;
34673;SDS011;20879;55.668;37.858;2022-08-03T13:54:16;16.92;;;5.35;;
34673;SDS011;20879;55.668;37.858;2022-08-03T13:56:46;9.18;;;4.28;;
34673;SDS011;20879;55.668;37.858;2022-08-03T13:59:20;9.68;;;4.82;;
34673;SDS011;20879;55.668;37.858;2022-08-03T14:01:50;9.90;;;4.28;;
34673;SDS011;20879;55.668;37.858;2022-08-03T14:04:21;11.05;;;4.53;;
34673;SDS011;20879;55.668;37.858;2022-08-03T14:06:50;13.40;;;5.10;;
34673;SDS011;20879;55.668;37.858;2022-08-03T14:09:20;12.70;;;5.07;;
34673;SDS011;20879;55.668;37.858;2022-08-03T14:11:49;13.57;;;4.93;;
34673;SDS011;20879;55.668;37.858;2022-08-03T14:14:36;11.60;;;4.90;;
34673;SDS011;20879;55.668;37.858;2022-08-03T14:17:05;7.97;;;4.55;;
34673;SDS011;20879;55.668;37.858;2022-08-03T14:19:34;5.80;;;4.72;;
34673;SDS011;20879;55.668;37.858;2022-08-03T14:22:19;11.40;;;5.10;;
34673;SDS011;20879;55.668;37.858;2022-08-03T14:24:50;15.32;;;5.22;;
34673;SDS011;20879;55.668;37.858;2022-08-03T14:27:19;12.73;;;5.10;;
34673;SDS011;20879;55.668;37.858;2022-08-03T14:29:50;16.75;;;6.10;;
34673;SDS011;20879;55.668;37.858;2022-08-03T14:32:21;8.95;;;5.10;;
34673;SDS011;20879;55.668;37.858;2022-08-03T14:34:51;13.43;;;5.93;;
34673;SDS011;20879;55.668;37.858;2022-08-03T14:37:20;8.93;;;4.90;;
34673;SDS011;20879;55.668;37.858;2022-08-03T14:39:49;10.20;;;5.10;;
34673;SDS011;20879;55.668;37.858;2022-08-03T14:42:27;12.98;;;4.90;;
34673;SDS011;20879;55.668;37.858;2022-08-03T14:44:59;12.98;;;4.82;;
34673;SDS011;20879;55.668;37.858;2022-08-03T14:47:36;6.93;;;4.38;;
34673;SDS011;20879;55.668;37.858;2022-08-03T14:50:25;6.93;;;4.28;;
34673;SDS011;20879;55.668;37.858;2022-08-03T14:53:10;8.65;;;4.40;;
34673;SDS011;20879;55.668;37.858;2022-08-03T14:55:39;10.48;;;4.80;;
34673;SDS011;20879;55.668;37.858;2022-08-03T14:58:16;11.18;;;5.10;;
34673;SDS011;20879;55.668;37.858;2022-08-03T15:00:49;11.80;;;5.07;;
34673;SDS011;20879;55.668;37.858;2022-08-03T15:03:20;13.68;;;5.07;;
34673;SDS011;20879;55.668;37.858;2022-08-03T15:05:51;9.40;;;4.57;;
34673;SDS011;20879;55.668;37.858;2022-08-03T15:08:21;7.22;;;4.43;;
34673;SDS011;20879;55.668;37.858;2022-08-03T15:10:52;13.13;;;5.10;;
34673;SDS011;20879;55.668;37.858;2022-08-03T15:13:21;13.77;;;5.35;;
34673;SDS011;20879;55.668;37.858;2022-08-03T15:15:54;8.30;;;4.80;;
34673;SDS011;20879;55.668;37.858;2022-08-03T15:18:23;7.78;;;4.30;;
34673;SDS011;20879;55.668;37.858;2022-08-03T15:20:56;9.70;;;4.50;;
34673;SDS011;20879;55.668;37.858;2022-08-03T15:23:26;7.57;;;4.17;;
34673;SDS011;20879;55.668;37.858;2022-08-03T15:25:55;9.00;;;4.43;;
34673;SDS011;20879;55.668;37.858;2022-08-03T15:28:45;9.05;;;4.63;;
34673;SDS011;20879;55.668;37.858;2022-08-03T15:31:18;13.15;;;5.25;;
34673;SDS011;20879;55.668;37.858;2022-08-03T15:33:48;14.18;;;5.13;;
34673;SDS011;20879;55.668;37.858;2022-08-03T15:36:18;8.90;;;4.63;;
34673;SDS011;20879;55.668;37.858;2022-08-03T15:38:47;9.27;;;4.55;;
34673;SDS011;20879;55.668;37.858;2022-08-03T15:41:16;15.77;;;5.32;;
34673;SDS011;20879;55.668;37.858;2022-08-03T15:43:46;15.27;;;5.70;;
34673;SDS011;20879;55.668;37.858;2022-08-03T15:46:19;17.15;;;5.40;;
34673;SDS011;20879;55.668;37.858;2022-08-03T15:48:56;19.15;;;5.30;;
34673;SDS011;20879;55.668;37.858;2022-08-03T15:51:25;13.75;;;5.38;;
34673;SDS011;20879;55.668;37.858;2022-08-03T15:53:55;13.93;;;5.13;;
34673;SDS011;20879;55.668;37.858;2022-08-03T15:56:24;18.48;;;5.90;;
34673;SDS011;20879;55.668;37.858;2022-08-03T15:58:53;8.93;;;4.75;;
34673;SDS011;20879;55.668;37.858;2022-08-03T16:01:40;13.38;;;5.18;;
34673;SDS011;20879;55.668;37.858;2022-08-03T16:04:10;12.20;;;5.45;;